sensor_id;sensor_type;location;lat;lon;timestamp;temperature;humidity
69589;SHT31;56792;50.644;17.984;2024-03-07T00:02:28;4.51;86.85
69589;SHT31;56792;50.644;17.984;2024-03-07T00:05:00;4.50;86.88
69589;SHT31;56792;50.644;17.984;2024-03-07T00:07:32;4.48;86.88
69589;SHT31;56792;50.644;17.984;2024-03-07T00:10:05;4.49;86.86
69589;SHT31;56792;50.644;17.984;2024-03-07T00:12:39;4.47;86.83
69589;SHT31;56792;50.644;17.984;2024-03-07T00:15:11;4.45;86.70
69589;SHT31;56792;50.644;17.984;2024-03-07T00:17:44;4.43;86.49
69589;SHT31;56792;50.644;17.984;2024-03-07T00:20:15;4.41;86.39
69589;SHT31;56792;50.644;17.984;2024-03-07T00:22:47;4.39;86.32
69589;SHT31;56792;50.644;17.984;2024-03-07T00:25:18;4.39;86.27
69589;SHT31;56792;50.644;17.984;2024-03-07T00:27:50;4.39;86.19
69589;SHT31;56792;50.644;17.984;2024-03-07T00:30:23;4.37;86.11
69589;SHT31;56792;50.644;17.984;2024-03-07T00:32:56;4.36;86.11
69589;SHT31;56792;50.644;17.984;2024-03-07T00:35:27;4.36;86.08
69589;SHT31;56792;50.644;17.984;2024-03-07T00:37:59;4.35;85.91
69589;SHT31;56792;50.644;17.984;2024-03-07T00:40:30;4.34;85.72
69589;SHT31;56792;50.644;17.984;2024-03-07T00:43:02;4.33;85.71
69589;SHT31;56792;50.644;17.984;2024-03-07T00:45:34;4.32;85.63
69589;SHT31;56792;50.644;17.984;2024-03-07T00:48:06;4.32;85.74
69589;SHT31;56792;50.644;17.984;2024-03-07T00:50:38;4.32;85.78
69589;SHT31;56792;50.644;17.984;2024-03-07T00:53:10;4.32;85.72
69589;SHT31;56792;50.644;17.984;2024-03-07T00:55:42;4.30;85.52
69589;SHT31;56792;50.644;17.984;2024-03-07T00:58:14;4.29;85.50
69589;SHT31;56792;50.644;17.984;2024-03-07T01:00:45;4.28;85.34
69589;SHT31;56792;50.644;17.984;2024-03-07T01:03:17;4.26;85.23
69589;SHT31;56792;50.644;17.984;2024-03-07T01:05:50;4.27;85.29
69589;SHT31;56792;50.644;17.984;2024-03-07T01:08:21;4.25;85.30
69589;SHT31;56792;50.644;17.984;2024-03-07T01:10:54;4.26;85.28
69589;SHT31;56792;50.644;17.984;2024-03-07T01:13:25;4.25;85.30
69589;SHT31;56792;50.644;17.984;2024-03-07T01:15:57;4.27;85.38
69589;SHT31;56792;50.644;17.984;2024-03-07T01:18:28;4.26;85.31
69589;SHT31;56792;50.644;17.984;2024-03-07T01:21:00;4.27;85.34
69589;SHT31;56792;50.644;17.984;2024-03-07T01:23:34;4.27;85.40
69589;SHT31;56792;50.644;17.984;2024-03-07T01:26:06;4.29;85.39
69589;SHT31;56792;50.644;17.984;2024-03-07T01:28:39;4.28;85.41
69589;SHT31;56792;50.644;17.984;2024-03-07T01:31:10;4.30;85.48
69589;SHT31;56792;50.644;17.984;2024-03-07T01:33:42;4.29;85.38
69589;SHT31;56792;50.644;17.984;2024-03-07T01:36:13;4.29;85.35
69589;SHT31;56792;50.644;17.984;2024-03-07T01:38:45;4.27;85.40
69589;SHT31;56792;50.644;17.984;2024-03-07T01:41:16;4.26;85.40
69589;SHT31;56792;50.644;17.984;2024-03-07T01:43:48;4.25;85.44
69589;SHT31;56792;50.644;17.984;2024-03-07T01:46:19;4.25;85.43
69589;SHT31;56792;50.644;17.984;2024-03-07T01:48:51;4.25;85.43
69589;SHT31;56792;50.644;17.984;2024-03-07T01:51:23;4.24;85.50
69589;SHT31;56792;50.644;17.984;2024-03-07T01:53:55;4.25;85.57
69589;SHT31;56792;50.644;17.984;2024-03-07T01:56:27;4.25;85.53
69589;SHT31;56792;50.644;17.984;2024-03-07T01:58:59;4.25;85.55
69589;SHT31;56792;50.644;17.984;2024-03-07T02:01:34;4.24;85.46
69589;SHT31;56792;50.644;17.984;2024-03-07T02:04:06;4.24;85.39
69589;SHT31;56792;50.644;17.984;2024-03-07T02:06:38;4.24;85.29
69589;SHT31;56792;50.644;17.984;2024-03-07T02:09:09;4.24;85.25
69589;SHT31;56792;50.644;17.984;2024-03-07T02:11:41;4.24;85.16
69589;SHT31;56792;50.644;17.984;2024-03-07T02:14:14;4.23;84.93
69589;SHT31;56792;50.644;17.984;2024-03-07T02:16:46;4.22;84.84
69589;SHT31;56792;50.644;17.984;2024-03-07T02:19:17;4.19;84.82
69589;SHT31;56792;50.644;17.984;2024-03-07T02:21:50;4.19;84.77
69589;SHT31;56792;50.644;17.984;2024-03-07T02:24:21;4.16;84.61
69589;SHT31;56792;50.644;17.984;2024-03-07T02:26:53;4.16;84.61
69589;SHT31;56792;50.644;17.984;2024-03-07T02:29:26;4.16;84.53
69589;SHT31;56792;50.644;17.984;2024-03-07T02:31:58;4.15;84.53
69589;SHT31;56792;50.644;17.984;2024-03-07T02:34:29;4.13;84.41
69589;SHT31;56792;50.644;17.984;2024-03-07T02:37:01;4.10;84.36
69589;SHT31;56792;50.644;17.984;2024-03-07T02:39:35;4.10;84.26
69589;SHT31;56792;50.644;17.984;2024-03-07T02:42:07;4.10;84.21
69589;SHT31;56792;50.644;17.984;2024-03-07T02:44:39;4.11;84.28
69589;SHT31;56792;50.644;17.984;2024-03-07T02:47:11;4.10;84.14
69589;SHT31;56792;50.644;17.984;2024-03-07T02:49:42;4.10;84.21
69589;SHT31;56792;50.644;17.984;2024-03-07T02:52:14;4.10;84.28
69589;SHT31;56792;50.644;17.984;2024-03-07T02:54:45;4.10;84.33
69589;SHT31;56792;50.644;17.984;2024-03-07T02:57:17;4.08;84.30
69589;SHT31;56792;50.644;17.984;2024-03-07T02:59:48;4.07;84.34
69589;SHT31;56792;50.644;17.984;2024-03-07T03:02:20;4.03;84.36
69589;SHT31;56792;50.644;17.984;2024-03-07T03:04:52;4.01;84.34
69589;SHT31;56792;50.644;17.984;2024-03-07T03:07:23;3.99;84.37
69589;SHT31;56792;50.644;17.984;2024-03-07T03:09:55;3.96;84.31
69589;SHT31;56792;50.644;17.984;2024-03-07T03:12:26;3.96;84.23
69589;SHT31;56792;50.644;17.984;2024-03-07T03:14:58;3.93;84.12
69589;SHT31;56792;50.644;17.984;2024-03-07T03:17:31;3.91;84.10
69589;SHT31;56792;50.644;17.984;2024-03-07T03:20:03;3.89;84.04
69589;SHT31;56792;50.644;17.984;2024-03-07T03:22:51;3.88;83.97
69589;SHT31;56792;50.644;17.984;2024-03-07T03:25:22;3.86;83.93
69589;SHT31;56792;50.644;17.984;2024-03-07T03:27:54;3.83;83.89
69589;SHT31;56792;50.644;17.984;2024-03-07T03:30:26;3.81;83.83
69589;SHT31;56792;50.644;17.984;2024-03-07T03:32:57;3.78;83.86
69589;SHT31;56792;50.644;17.984;2024-03-07T03:35:28;3.77;83.92
69589;SHT31;56792;50.644;17.984;2024-03-07T03:38:00;3.74;83.78
69589;SHT31;56792;50.644;17.984;2024-03-07T03:40:33;3.72;83.79
69589;SHT31;56792;50.644;17.984;2024-03-07T03:43:05;3.68;83.62
69589;SHT31;56792;50.644;17.984;2024-03-07T03:45:36;3.65;83.65
69589;SHT31;56792;50.644;17.984;2024-03-07T03:48:08;3.64;83.69
69589;SHT31;56792;50.644;17.984;2024-03-07T03:50:40;3.63;83.74
69589;SHT31;56792;50.644;17.984;2024-03-07T03:53:13;3.63;83.75
69589;SHT31;56792;50.644;17.984;2024-03-07T03:55:44;3.62;83.64
69589;SHT31;56792;50.644;17.984;2024-03-07T03:58:16;3.58;83.64
69589;SHT31;56792;50.644;17.984;2024-03-07T04:00:47;3.55;83.46
69589;SHT31;56792;50.644;17.984;2024-03-07T04:03:19;3.50;83.36
69589;SHT31;56792;50.644;17.984;2024-03-07T04:05:50;3.47;83.41
69589;SHT31;56792;50.644;17.984;2024-03-07T04:08:23;3.46;83.36
69589;SHT31;56792;50.644;17.984;2024-03-07T04:10:54;3.45;83.29
69589;SHT31;56792;50.644;17.984;2024-03-07T04:13:26;3.44;83.25
69589;SHT31;56792;50.644;17.984;2024-03-07T04:15:58;3.45;83.22
69589;SHT31;56792;50.644;17.984;2024-03-07T04:18:30;3.43;83.11
69589;SHT31;56792;50.644;17.984;2024-03-07T04:21:01;3.41;83.05
69589;SHT31;56792;50.644;17.984;2024-03-07T04:23:36;3.41;83.20
69589;SHT31;56792;50.644;17.984;2024-03-07T04:26:13;3.40;83.25
69589;SHT31;56792;50.644;17.984;2024-03-07T04:28:44;3.39;83.12
69589;SHT31;56792;50.644;17.984;2024-03-07T04:31:16;3.37;83.04
69589;SHT31;56792;50.644;17.984;2024-03-07T04:33:48;3.32;82.86
69589;SHT31;56792;50.644;17.984;2024-03-07T04:36:20;3.30;82.80
69589;SHT31;56792;50.644;17.984;2024-03-07T04:38:52;3.26;82.76
69589;SHT31;56792;50.644;17.984;2024-03-07T04:41:24;3.23;82.63
69589;SHT31;56792;50.644;17.984;2024-03-07T04:43:56;3.19;82.58
69589;SHT31;56792;50.644;17.984;2024-03-07T04:46:29;3.17;82.61
69589;SHT31;56792;50.644;17.984;2024-03-07T04:49:00;3.16;82.70
69589;SHT31;56792;50.644;17.984;2024-03-07T04:51:31;3.16;82.76
69589;SHT31;56792;50.644;17.984;2024-03-07T04:54:03;3.12;82.25
69589;SHT31;56792;50.644;17.984;2024-03-07T04:56:35;3.06;82.14
69589;SHT31;56792;50.644;17.984;2024-03-07T04:59:07;2.99;82.27
69589;SHT31;56792;50.644;17.984;2024-03-07T05:01:39;2.94;82.29
69589;SHT31;56792;50.644;17.984;2024-03-07T05:04:11;2.87;82.31
69589;SHT31;56792;50.644;17.984;2024-03-07T05:06:44;2.81;82.46
69589;SHT31;56792;50.644;17.984;2024-03-07T05:09:16;2.77;82.50
69589;SHT31;56792;50.644;17.984;2024-03-07T05:11:52;2.71;82.63
69589;SHT31;56792;50.644;17.984;2024-03-07T05:14:24;2.63;82.70
69589;SHT31;56792;50.644;17.984;2024-03-07T05:16:56;2.58;82.74
69589;SHT31;56792;50.644;17.984;2024-03-07T05:19:32;2.55;82.81
69589;SHT31;56792;50.644;17.984;2024-03-07T05:22:04;2.49;82.83
69589;SHT31;56792;50.644;17.984;2024-03-07T05:24:40;2.43;82.81
69589;SHT31;56792;50.644;17.984;2024-03-07T05:27:12;2.36;82.84
69589;SHT31;56792;50.644;17.984;2024-03-07T05:29:43;2.31;82.82
69589;SHT31;56792;50.644;17.984;2024-03-07T05:32:22;2.26;82.74
69589;SHT31;56792;50.644;17.984;2024-03-07T05:34:54;2.20;82.63
69589;SHT31;56792;50.644;17.984;2024-03-07T05:37:26;2.17;82.66
69589;SHT31;56792;50.644;17.984;2024-03-07T05:39:58;2.13;82.70
69589;SHT31;56792;50.644;17.984;2024-03-07T05:42:30;2.12;82.63
69589;SHT31;56792;50.644;17.984;2024-03-07T05:45:02;2.07;82.25
69589;SHT31;56792;50.644;17.984;2024-03-07T05:47:35;2.02;82.10
69589;SHT31;56792;50.644;17.984;2024-03-07T05:50:07;2.01;82.34
69589;SHT31;56792;50.644;17.984;2024-03-07T05:52:40;2.00;82.24
69589;SHT31;56792;50.644;17.984;2024-03-07T05:55:11;1.98;82.01
69589;SHT31;56792;50.644;17.984;2024-03-07T05:57:45;1.94;81.85
69589;SHT31;56792;50.644;17.984;2024-03-07T06:00:17;1.91;81.56
69589;SHT31;56792;50.644;17.984;2024-03-07T06:02:53;1.89;81.44
69589;SHT31;56792;50.644;17.984;2024-03-07T06:05:25;1.88;81.47
69589;SHT31;56792;50.644;17.984;2024-03-07T06:07:57;1.88;81.38
69589;SHT31;56792;50.644;17.984;2024-03-07T06:10:33;1.87;81.35
69589;SHT31;56792;50.644;17.984;2024-03-07T06:13:07;1.87;81.25
69589;SHT31;56792;50.644;17.984;2024-03-07T06:15:44;1.88;81.22
69589;SHT31;56792;50.644;17.984;2024-03-07T06:18:16;1.90;81.00
69589;SHT31;56792;50.644;17.984;2024-03-07T06:20:47;1.90;80.72
69589;SHT31;56792;50.644;17.984;2024-03-07T06:23:19;1.90;80.47
69589;SHT31;56792;50.644;17.984;2024-03-07T06:25:50;1.93;80.48
69589;SHT31;56792;50.644;17.984;2024-03-07T06:28:25;1.95;80.45
69589;SHT31;56792;50.644;17.984;2024-03-07T06:30:56;1.97;80.51
69589;SHT31;56792;50.644;17.984;2024-03-07T06:33:30;1.99;80.26
69589;SHT31;56792;50.644;17.984;2024-03-07T06:36:04;2.02;80.34
69589;SHT31;56792;50.644;17.984;2024-03-07T06:38:36;2.06;80.39
69589;SHT31;56792;50.644;17.984;2024-03-07T06:41:08;2.08;80.06
69589;SHT31;56792;50.644;17.984;2024-03-07T06:43:41;2.12;80.10
69589;SHT31;56792;50.644;17.984;2024-03-07T06:46:13;2.19;80.15
69589;SHT31;56792;50.644;17.984;2024-03-07T06:48:46;2.24;80.09
69589;SHT31;56792;50.644;17.984;2024-03-07T06:51:19;2.29;79.89
69589;SHT31;56792;50.644;17.984;2024-03-07T06:53:51;2.33;79.52
69589;SHT31;56792;50.644;17.984;2024-03-07T06:56:23;2.36;79.45
69589;SHT31;56792;50.644;17.984;2024-03-07T06:58:55;2.41;79.46
69589;SHT31;56792;50.644;17.984;2024-03-07T07:01:29;2.46;79.18
69589;SHT31;56792;50.644;17.984;2024-03-07T07:04:01;2.50;79.11
69589;SHT31;56792;50.644;17.984;2024-03-07T07:06:35;2.55;78.85
69589;SHT31;56792;50.644;17.984;2024-03-07T07:09:09;2.58;78.84
69589;SHT31;56792;50.644;17.984;2024-03-07T07:11:45;2.61;78.21
69589;SHT31;56792;50.644;17.984;2024-03-07T07:14:17;2.65;78.49
69589;SHT31;56792;50.644;17.984;2024-03-07T07:16:48;2.70;78.20
69589;SHT31;56792;50.644;17.984;2024-03-07T07:19:20;2.77;78.36
69589;SHT31;56792;50.644;17.984;2024-03-07T07:21:51;2.81;77.78
69589;SHT31;56792;50.644;17.984;2024-03-07T07:24:23;2.86;77.90
69589;SHT31;56792;50.644;17.984;2024-03-07T07:26:56;2.89;77.79
69589;SHT31;56792;50.644;17.984;2024-03-07T07:29:28;2.94;77.84
69589;SHT31;56792;50.644;17.984;2024-03-07T07:31:59;2.99;77.59
69589;SHT31;56792;50.644;17.984;2024-03-07T07:34:32;3.01;77.38
69589;SHT31;56792;50.644;17.984;2024-03-07T07:37:03;3.06;77.43
69589;SHT31;56792;50.644;17.984;2024-03-07T07:39:35;3.13;77.08
69589;SHT31;56792;50.644;17.984;2024-03-07T07:42:07;3.17;76.98
69589;SHT31;56792;50.644;17.984;2024-03-07T07:44:38;3.21;76.67
69589;SHT31;56792;50.644;17.984;2024-03-07T07:47:11;3.27;76.51
69589;SHT31;56792;50.644;17.984;2024-03-07T07:49:42;3.34;76.67
69589;SHT31;56792;50.644;17.984;2024-03-07T07:52:14;3.40;76.58
69589;SHT31;56792;50.644;17.984;2024-03-07T07:54:46;3.50;76.27
69589;SHT31;56792;50.644;17.984;2024-03-07T07:57:17;3.56;76.04
69589;SHT31;56792;50.644;17.984;2024-03-07T07:59:49;3.59;75.66
69589;SHT31;56792;50.644;17.984;2024-03-07T08:02:20;3.62;75.55
69589;SHT31;56792;50.644;17.984;2024-03-07T08:04:52;3.66;75.63
69589;SHT31;56792;50.644;17.984;2024-03-07T08:07:23;3.70;75.39
69589;SHT31;56792;50.644;17.984;2024-03-07T08:09:55;3.77;74.94
69589;SHT31;56792;50.644;17.984;2024-03-07T08:12:27;3.85;74.80
69589;SHT31;56792;50.644;17.984;2024-03-07T08:14:58;3.90;74.61
69589;SHT31;56792;50.644;17.984;2024-03-07T08:17:30;3.95;74.60
69589;SHT31;56792;50.644;17.984;2024-03-07T08:20:02;4.00;74.56
69589;SHT31;56792;50.644;17.984;2024-03-07T08:22:38;4.07;74.26
69589;SHT31;56792;50.644;17.984;2024-03-07T08:25:10;4.11;73.47
69589;SHT31;56792;50.644;17.984;2024-03-07T08:27:45;4.14;73.49
69589;SHT31;56792;50.644;17.984;2024-03-07T08:30:18;4.17;73.53
69589;SHT31;56792;50.644;17.984;2024-03-07T08:32:51;4.21;73.64
69589;SHT31;56792;50.644;17.984;2024-03-07T08:35:23;4.27;73.43
69589;SHT31;56792;50.644;17.984;2024-03-07T08:37:55;4.28;72.66
69589;SHT31;56792;50.644;17.984;2024-03-07T08:40:27;4.30;72.62
69589;SHT31;56792;50.644;17.984;2024-03-07T08:43:00;4.32;72.63
69589;SHT31;56792;50.644;17.984;2024-03-07T08:45:33;4.39;73.24
69589;SHT31;56792;50.644;17.984;2024-03-07T08:48:05;4.42;72.94
69589;SHT31;56792;50.644;17.984;2024-03-07T08:50:38;4.44;72.52
69589;SHT31;56792;50.644;17.984;2024-03-07T08:53:09;4.45;72.49
69589;SHT31;56792;50.644;17.984;2024-03-07T08:55:41;4.47;72.47
69589;SHT31;56792;50.644;17.984;2024-03-07T08:58:12;4.51;72.75
69589;SHT31;56792;50.644;17.984;2024-03-07T09:00:44;4.57;72.62
69589;SHT31;56792;50.644;17.984;2024-03-07T09:03:18;4.61;72.45
69589;SHT31;56792;50.644;17.984;2024-03-07T09:05:50;4.64;71.96
69589;SHT31;56792;50.644;17.984;2024-03-07T09:08:22;4.70;72.27
69589;SHT31;56792;50.644;17.984;2024-03-07T09:10:54;4.75;72.21
69589;SHT31;56792;50.644;17.984;2024-03-07T09:13:25;4.81;72.20
69589;SHT31;56792;50.644;17.984;2024-03-07T09:15:57;4.82;71.88
69589;SHT31;56792;50.644;17.984;2024-03-07T09:18:31;4.86;72.24
69589;SHT31;56792;50.644;17.984;2024-03-07T09:21:03;4.90;72.13
69589;SHT31;56792;50.644;17.984;2024-03-07T09:23:35;4.93;71.69
69589;SHT31;56792;50.644;17.984;2024-03-07T09:26:08;4.91;71.55
69589;SHT31;56792;50.644;17.984;2024-03-07T09:28:39;4.91;71.65
69589;SHT31;56792;50.644;17.984;2024-03-07T09:31:11;4.99;71.65
69589;SHT31;56792;50.644;17.984;2024-03-07T09:33:44;5.08;70.77
69589;SHT31;56792;50.644;17.984;2024-03-07T09:36:16;5.15;70.62
69589;SHT31;56792;50.644;17.984;2024-03-07T09:38:48;5.23;70.15
69589;SHT31;56792;50.644;17.984;2024-03-07T09:41:20;5.30;69.46
69589;SHT31;56792;50.644;17.984;2024-03-07T09:43:52;5.30;69.19
69589;SHT31;56792;50.644;17.984;2024-03-07T09:46:25;5.29;69.18
69589;SHT31;56792;50.644;17.984;2024-03-07T09:48:58;5.24;69.18
69589;SHT31;56792;50.644;17.984;2024-03-07T09:51:32;5.20;69.30
69589;SHT31;56792;50.644;17.984;2024-03-07T09:54:05;5.20;68.87
69589;SHT31;56792;50.644;17.984;2024-03-07T09:56:37;5.24;69.48
69589;SHT31;56792;50.644;17.984;2024-03-07T09:59:11;5.31;69.25
69589;SHT31;56792;50.644;17.984;2024-03-07T10:01:47;5.29;68.98
69589;SHT31;56792;50.644;17.984;2024-03-07T10:04:31;5.34;69.18
69589;SHT31;56792;50.644;17.984;2024-03-07T10:07:15;5.45;68.64
69589;SHT31;56792;50.644;17.984;2024-03-07T10:09:47;5.55;68.57
69589;SHT31;56792;50.644;17.984;2024-03-07T10:12:23;5.64;68.82
69589;SHT31;56792;50.644;17.984;2024-03-07T10:14:55;5.71;68.55
69589;SHT31;56792;50.644;17.984;2024-03-07T10:17:31;5.73;68.60
69589;SHT31;56792;50.644;17.984;2024-03-07T10:20:02;5.84;68.24
69589;SHT31;56792;50.644;17.984;2024-03-07T10:22:40;5.93;68.01
69589;SHT31;56792;50.644;17.984;2024-03-07T10:25:11;6.03;67.71
69589;SHT31;56792;50.644;17.984;2024-03-07T10:27:45;6.09;67.50
69589;SHT31;56792;50.644;17.984;2024-03-07T10:30:16;6.32;67.29
69589;SHT31;56792;50.644;17.984;2024-03-07T10:32:48;6.34;66.26
69589;SHT31;56792;50.644;17.984;2024-03-07T10:35:24;6.24;66.44
69589;SHT31;56792;50.644;17.984;2024-03-07T10:37:56;6.29;67.01
69589;SHT31;56792;50.644;17.984;2024-03-07T10:40:32;6.30;66.06
69589;SHT31;56792;50.644;17.984;2024-03-07T10:43:09;6.27;66.33
69589;SHT31;56792;50.644;17.984;2024-03-07T10:45:43;6.37;66.95
69589;SHT31;56792;50.644;17.984;2024-03-07T10:48:18;6.45;66.59
69589;SHT31;56792;50.644;17.984;2024-03-07T10:51:01;6.48;66.48
69589;SHT31;56792;50.644;17.984;2024-03-07T10:53:44;6.44;66.35
69589;SHT31;56792;50.644;17.984;2024-03-07T10:56:32;6.41;66.69
69589;SHT31;56792;50.644;17.984;2024-03-07T10:59:17;6.43;66.79
69589;SHT31;56792;50.644;17.984;2024-03-07T11:01:57;6.44;66.34
69589;SHT31;56792;50.644;17.984;2024-03-07T11:04:43;6.43;66.59
69589;SHT31;56792;50.644;17.984;2024-03-07T11:07:16;6.44;66.28
69589;SHT31;56792;50.644;17.984;2024-03-07T11:09:50;6.43;66.59
69589;SHT31;56792;50.644;17.984;2024-03-07T11:12:23;6.44;66.50
69589;SHT31;56792;50.644;17.984;2024-03-07T11:14:56;6.42;66.05
69589;SHT31;56792;50.644;17.984;2024-03-07T11:17:28;6.37;65.87
69589;SHT31;56792;50.644;17.984;2024-03-07T11:22:52;6.38;65.94
69589;SHT31;56792;50.644;17.984;2024-03-07T11:25:23;6.38;65.61
69589;SHT31;56792;50.644;17.984;2024-03-07T11:28:00;6.45;65.80
69589;SHT31;56792;50.644;17.984;2024-03-07T11:30:32;6.52;65.71
69589;SHT31;56792;50.644;17.984;2024-03-07T11:33:07;6.52;65.50
69589;SHT31;56792;50.644;17.984;2024-03-07T11:35:42;6.59;65.79
69589;SHT31;56792;50.644;17.984;2024-03-07T11:38:19;6.63;65.29
69589;SHT31;56792;50.644;17.984;2024-03-07T11:41:00;6.63;65.48
69589;SHT31;56792;50.644;17.984;2024-03-07T11:43:35;6.71;65.72
69589;SHT31;56792;50.644;17.984;2024-03-07T11:46:06;6.79;65.09
69589;SHT31;56792;50.644;17.984;2024-03-07T11:48:43;6.87;64.73
69589;SHT31;56792;50.644;17.984;2024-03-07T11:51:17;6.96;64.48
69589;SHT31;56792;50.644;17.984;2024-03-07T11:53:52;7.13;64.41
69589;SHT31;56792;50.644;17.984;2024-03-07T11:56:25;7.24;64.41
69589;SHT31;56792;50.644;17.984;2024-03-07T11:58:56;7.39;64.15
69589;SHT31;56792;50.644;17.984;2024-03-07T12:01:29;7.56;63.51
69589;SHT31;56792;50.644;17.984;2024-03-07T12:04:02;7.69;63.34
69589;SHT31;56792;50.644;17.984;2024-03-07T12:06:34;7.74;63.26
69589;SHT31;56792;50.644;17.984;2024-03-07T12:09:07;7.84;63.10
69589;SHT31;56792;50.644;17.984;2024-03-07T12:11:50;7.82;61.74
69589;SHT31;56792;50.644;17.984;2024-03-07T12:14:21;7.71;61.87
69589;SHT31;56792;50.644;17.984;2024-03-07T12:16:53;7.67;61.91
69589;SHT31;56792;50.644;17.984;2024-03-07T12:19:24;7.66;61.43
69589;SHT31;56792;50.644;17.984;2024-03-07T12:21:59;7.69;61.68
69589;SHT31;56792;50.644;17.984;2024-03-07T12:24:31;7.73;61.45
69589;SHT31;56792;50.644;17.984;2024-03-07T12:27:05;7.70;61.30
69589;SHT31;56792;50.644;17.984;2024-03-07T12:29:38;7.67;61.42
69589;SHT31;56792;50.644;17.984;2024-03-07T12:32:12;7.64;61.49
69589;SHT31;56792;50.644;17.984;2024-03-07T12:34:43;7.58;61.50
69589;SHT31;56792;50.644;17.984;2024-03-07T12:37:15;7.44;60.73
69589;SHT31;56792;50.644;17.984;2024-03-07T12:39:53;7.48;61.30
69589;SHT31;56792;50.644;17.984;2024-03-07T12:42:28;7.58;60.90
69589;SHT31;56792;50.644;17.984;2024-03-07T12:44:59;7.56;60.77
69589;SHT31;56792;50.644;17.984;2024-03-07T12:47:33;7.50;60.97
69589;SHT31;56792;50.644;17.984;2024-03-07T12:50:07;7.52;61.18
69589;SHT31;56792;50.644;17.984;2024-03-07T12:52:39;7.53;61.13
69589;SHT31;56792;50.644;17.984;2024-03-07T12:55:11;7.50;61.59
69589;SHT31;56792;50.644;17.984;2024-03-07T12:57:44;7.41;61.45
69589;SHT31;56792;50.644;17.984;2024-03-07T13:00:17;7.29;61.92
69589;SHT31;56792;50.644;17.984;2024-03-07T13:02:49;7.26;62.51
69589;SHT31;56792;50.644;17.984;2024-03-07T13:05:24;7.21;62.58
69589;SHT31;56792;50.644;17.984;2024-03-07T13:07:55;7.15;62.84
69589;SHT31;56792;50.644;17.984;2024-03-07T13:10:26;7.06;62.99
69589;SHT31;56792;50.644;17.984;2024-03-07T13:12:57;7.03;63.07
69589;SHT31;56792;50.644;17.984;2024-03-07T13:15:29;6.96;62.95
69589;SHT31;56792;50.644;17.984;2024-03-07T13:18:04;6.88;63.14
69589;SHT31;56792;50.644;17.984;2024-03-07T13:20:36;6.76;62.71
69589;SHT31;56792;50.644;17.984;2024-03-07T13:23:09;6.67;63.43
69589;SHT31;56792;50.644;17.984;2024-03-07T13:25:41;6.66;63.38
69589;SHT31;56792;50.644;17.984;2024-03-07T13:28:12;6.61;63.33
69589;SHT31;56792;50.644;17.984;2024-03-07T13:30:46;6.58;63.25
69589;SHT31;56792;50.644;17.984;2024-03-07T13:33:21;6.56;63.60
69589;SHT31;56792;50.644;17.984;2024-03-07T13:35:54;6.54;64.03
69589;SHT31;56792;50.644;17.984;2024-03-07T13:38:27;6.52;64.08
69589;SHT31;56792;50.644;17.984;2024-03-07T13:40:58;6.46;64.00
69589;SHT31;56792;50.644;17.984;2024-03-07T13:43:30;6.38;63.81
69589;SHT31;56792;50.644;17.984;2024-03-07T13:46:02;6.31;64.25
69589;SHT31;56792;50.644;17.984;2024-03-07T13:48:33;6.29;64.12
69589;SHT31;56792;50.644;17.984;2024-03-07T13:51:04;6.25;63.92
69589;SHT31;56792;50.644;17.984;2024-03-07T13:53:36;6.21;63.86
69589;SHT31;56792;50.644;17.984;2024-03-07T13:56:22;6.19;64.29
69589;SHT31;56792;50.644;17.984;2024-03-07T13:59:21;6.22;64.23
69589;SHT31;56792;50.644;17.984;2024-03-07T14:02:24;6.21;64.28
69589;SHT31;56792;50.644;17.984;2024-03-07T14:05:33;6.21;64.46
69589;SHT31;56792;50.644;17.984;2024-03-07T14:22:21;6.12;64.98
69589;SHT31;56792;50.644;17.984;2024-03-07T14:25:23;6.13;64.68
69589;SHT31;56792;50.644;17.984;2024-03-07T14:28:40;6.11;64.42
69589;SHT31;56792;50.644;17.984;2024-03-07T14:31:41;6.11;64.53
69589;SHT31;56792;50.644;17.984;2024-03-07T14:34:18;6.11;64.80
69589;SHT31;56792;50.644;17.984;2024-03-07T14:37:11;6.13;64.60
69589;SHT31;56792;50.644;17.984;2024-03-07T14:39:53;6.14;64.73
69589;SHT31;56792;50.644;17.984;2024-03-07T14:42:39;6.12;65.04
69589;SHT31;56792;50.644;17.984;2024-03-07T14:45:14;6.10;65.14
69589;SHT31;56792;50.644;17.984;2024-03-07T14:47:53;6.12;65.05
69589;SHT31;56792;50.644;17.984;2024-03-07T14:50:24;6.11;65.09
69589;SHT31;56792;50.644;17.984;2024-03-07T14:52:59;6.09;65.18
69589;SHT31;56792;50.644;17.984;2024-03-07T14:55:31;6.07;64.80
69589;SHT31;56792;50.644;17.984;2024-03-07T14:58:04;6.00;64.97
69589;SHT31;56792;50.644;17.984;2024-03-07T15:00:36;5.99;65.04
69589;SHT31;56792;50.644;17.984;2024-03-07T15:03:10;5.98;65.31
69589;SHT31;56792;50.644;17.984;2024-03-07T15:05:45;5.97;65.30
69589;SHT31;56792;50.644;17.984;2024-03-07T15:08:17;5.94;65.04
69589;SHT31;56792;50.644;17.984;2024-03-07T15:10:52;5.92;64.92
69589;SHT31;56792;50.644;17.984;2024-03-07T15:13:30;5.91;65.05
69589;SHT31;56792;50.644;17.984;2024-03-07T15:16:01;5.93;65.34
69589;SHT31;56792;50.644;17.984;2024-03-07T15:18:34;5.87;64.80
69589;SHT31;56792;50.644;17.984;2024-03-07T15:21:05;5.84;64.98
69589;SHT31;56792;50.644;17.984;2024-03-07T15:23:41;5.83;65.50
69589;SHT31;56792;50.644;17.984;2024-03-07T15:26:14;5.85;65.59
69589;SHT31;56792;50.644;17.984;2024-03-07T15:28:45;5.84;65.80
69589;SHT31;56792;50.644;17.984;2024-03-07T15:31:16;5.82;65.71
69589;SHT31;56792;50.644;17.984;2024-03-07T15:33:47;5.80;66.03
69589;SHT31;56792;50.644;17.984;2024-03-07T15:36:18;5.78;65.99
69589;SHT31;56792;50.644;17.984;2024-03-07T15:38:50;5.79;66.05
69589;SHT31;56792;50.644;17.984;2024-03-07T15:41:20;5.78;66.27
69589;SHT31;56792;50.644;17.984;2024-03-07T15:43:51;5.73;66.37
69589;SHT31;56792;50.644;17.984;2024-03-07T15:46:22;5.71;66.49
69589;SHT31;56792;50.644;17.984;2024-03-07T15:48:53;5.70;66.51
69589;SHT31;56792;50.644;17.984;2024-03-07T15:51:24;5.70;66.41
69589;SHT31;56792;50.644;17.984;2024-03-07T15:53:55;5.69;66.40
69589;SHT31;56792;50.644;17.984;2024-03-07T15:56:26;5.68;66.57
69589;SHT31;56792;50.644;17.984;2024-03-07T15:58:57;5.68;66.81
69589;SHT31;56792;50.644;17.984;2024-03-07T16:01:27;5.68;66.79
69589;SHT31;56792;50.644;17.984;2024-03-07T16:04:00;5.67;66.96
69589;SHT31;56792;50.644;17.984;2024-03-07T16:06:32;5.64;66.48
69589;SHT31;56792;50.644;17.984;2024-03-07T16:09:02;5.63;66.41
69589;SHT31;56792;50.644;17.984;2024-03-07T16:11:33;5.63;66.56
69589;SHT31;56792;50.644;17.984;2024-03-07T16:14:04;5.61;66.41
69589;SHT31;56792;50.644;17.984;2024-03-07T16:16:40;5.58;66.42
69589;SHT31;56792;50.644;17.984;2024-03-07T16:19:10;5.57;66.05
69589;SHT31;56792;50.644;17.984;2024-03-07T16:21:45;5.53;66.25
69589;SHT31;56792;50.644;17.984;2024-03-07T16:24:16;5.49;66.02
69589;SHT31;56792;50.644;17.984;2024-03-07T16:26:47;5.46;66.40